Boyleston, Indiana
Current Conditions -  °F | °C
As of 2:55 AM on Friday 31 Oct 2014 (Local Time) from KFKR Reporting Station
Broken Clouds Broken Clouds  
Wind Chill: 43°   Ceiling: 10000
Heat Index: 43°   Visibility: 10mi
Dew Point: 39°   Wind: 3mph
Humidity: 87%   Direction: 240°WSW
Pressure: 30.04"   Gusts: NA
Location:  40.3097°N, 86.3595°W
Report Text: KFKR 310655Z AUTO 24003KT 10SM BKN100 06/04 A3004 RMK AO2 T00600040
Loading
Personal Weather Stations






























Interactive Weather Map
Tropical Storm Tracking
New forecast layout! Learn more

10-Day Weather Forecast

Advertisements
Track Severe Weather on mobile